createdAt,value
2018-07-22T00:00:50.649Z,11.25
2018-07-22T00:03:19.741Z,10.70
2018-07-22T00:05:48.825Z,12.13
2018-07-22T00:08:17.997Z,13.50
2018-07-22T00:10:47.104Z,14.70
2018-07-22T00:13:16.183Z,11.70
2018-07-22T00:15:46.055Z,12.03
2018-07-22T00:18:15.110Z,13.07
2018-07-22T00:20:45.062Z,11.83
2018-07-22T00:23:14.898Z,11.38
2018-07-22T00:25:44.948Z,12.50
2018-07-22T00:28:14.862Z,13.63
2018-07-22T00:30:45.034Z,12.70
2018-07-22T00:33:15.049Z,12.23
2018-07-22T00:35:45.368Z,13.58
2018-07-22T00:38:14.910Z,13.33
2018-07-22T00:40:45.159Z,17.63
2018-07-22T00:43:14.989Z,14.75
2018-07-22T00:45:45.467Z,15.05
2018-07-22T00:48:14.952Z,14.80
2018-07-22T00:50:44.032Z,14.17
2018-07-22T00:53:13.169Z,13.47
2018-07-22T00:55:42.644Z,14.17
2018-07-22T00:58:11.756Z,14.63
2018-07-22T01:00:41.154Z,13.30
2018-07-22T01:03:10.346Z,13.60
2018-07-22T01:05:39.381Z,14.77
2018-07-22T01:08:08.558Z,19.10
2018-07-22T01:10:37.653Z,13.77
2018-07-22T01:13:07.195Z,14.50
2018-07-22T01:15:36.515Z,14.03
2018-07-22T01:18:05.901Z,13.50
2018-07-22T01:20:34.982Z,13.90
2018-07-22T01:23:04.282Z,14.33
2018-07-22T01:25:33.492Z,17.30
2018-07-22T01:28:02.556Z,14.68
2018-07-22T01:30:32.073Z,16.37
2018-07-22T01:33:01.147Z,15.10
2018-07-22T01:35:30.279Z,20.10
2018-07-22T01:37:59.331Z,16.50
2018-07-22T01:40:28.632Z,17.30
2018-07-22T01:42:57.972Z,14.70
2018-07-22T01:45:27.837Z,13.65
2018-07-22T01:47:57.343Z,13.68
2018-07-22T01:50:26.473Z,14.60
2018-07-22T01:52:55.546Z,13.87
2018-07-22T01:55:24.630Z,15.15
2018-07-22T01:57:54.217Z,16.73
2018-07-22T02:00:23.310Z,17.48
2018-07-22T02:02:52.809Z,16.17
2018-07-22T02:05:21.902Z,14.90
2018-07-22T02:07:51.510Z,15.67
2018-07-22T02:10:20.933Z,17.07
2018-07-22T02:12:50.432Z,14.60
2018-07-22T02:15:19.529Z,16.83
2018-07-22T02:17:48.581Z,13.93
2018-07-22T02:20:17.684Z,16.23
2018-07-22T02:22:47.598Z,16.07
2018-07-22T02:25:16.945Z,15.50
2018-07-22T02:27:46.214Z,17.50
2018-07-22T02:30:16.528Z,16.67
2018-07-22T02:32:46.092Z,19.87
2018-07-22T02:35:16.177Z,15.85
2018-07-22T02:37:46.204Z,14.33
2018-07-22T02:40:16.598Z,13.70
2018-07-22T02:42:46.162Z,14.07
2018-07-22T02:45:16.418Z,14.57
2018-07-22T02:47:46.420Z,14.03
2018-07-22T02:50:16.540Z,14.63
2018-07-22T02:52:46.315Z,15.90
2018-07-22T02:55:17.742Z,16.73
2018-07-22T02:57:46.874Z,15.80
2018-07-22T03:00:16.659Z,16.77
2018-07-22T03:02:46.562Z,15.63
2018-07-22T03:05:16.510Z,13.93
2018-07-22T03:07:46.508Z,15.45
2018-07-22T03:10:16.450Z,15.03
2018-07-22T03:12:46.499Z,18.55
2018-07-22T03:15:15.853Z,22.67
2018-07-22T03:17:44.923Z,18.70
2018-07-22T03:20:13.996Z,21.57
2018-07-22T03:22:43.032Z,19.23
2018-07-22T03:25:12.234Z,20.50
2018-07-22T03:27:41.614Z,21.57
2018-07-22T03:30:10.914Z,18.97
2018-07-22T03:32:39.969Z,20.97
2018-07-22T03:35:09.063Z,21.50
2018-07-22T03:37:38.084Z,20.67
2018-07-22T03:40:07.274Z,20.23
2018-07-22T03:42:36.351Z,20.17
2018-07-22T03:45:05.852Z,22.83
2018-07-22T03:47:35.068Z,21.40
2018-07-22T03:50:05.983Z,22.60
2018-07-22T03:52:35.153Z,25.53
2018-07-22T03:55:04.937Z,21.40
2018-07-22T03:57:34.180Z,22.07
2018-07-22T04:00:04.119Z,21.57
2018-07-22T04:02:33.177Z,21.87
2018-07-22T04:05:02.293Z,23.00
2018-07-22T04:07:31.798Z,22.42
2018-07-22T04:10:01.299Z,22.97
2018-07-22T04:12:30.380Z,23.07
2018-07-22T04:14:59.905Z,22.62
2018-07-22T04:17:28.980Z,20.82
2018-07-22T04:19:58.255Z,23.50
2018-07-22T04:22:27.597Z,21.87
2018-07-22T04:24:56.937Z,22.02
2018-07-22T04:27:26.151Z,22.22
2018-07-22T04:29:55.231Z,23.38
2018-07-22T04:32:24.415Z,23.50
2018-07-22T04:34:53.543Z,21.23
2018-07-22T04:37:22.609Z,22.00
2018-07-22T04:39:51.693Z,20.40
2018-07-22T04:42:20.761Z,19.70
2018-07-22T04:44:50.045Z,18.93
2018-07-22T04:47:19.162Z,19.53
2018-07-22T04:49:48.468Z,19.53
2018-07-22T04:52:17.647Z,19.43
2018-07-22T04:54:47.779Z,18.60
2018-07-22T04:57:17.859Z,18.25
2018-07-22T04:59:48.149Z,17.70
2018-07-22T05:02:18.074Z,18.32
2018-07-22T05:04:48.007Z,19.25
2018-07-22T05:07:17.952Z,21.33
2018-07-22T05:09:47.839Z,19.80
2018-07-22T05:12:18.065Z,20.07
2018-07-22T05:14:48.113Z,21.03
2018-07-22T05:17:18.301Z,20.37
2018-07-22T05:19:47.903Z,20.13
2018-07-22T05:41:37.111Z,21.50
2018-07-22T05:44:06.873Z,14.47
2018-07-22T05:46:36.224Z,15.20
2018-07-22T05:49:05.823Z,14.97
2018-07-22T05:51:35.049Z,14.10
2018-07-22T05:54:04.252Z,14.00
2018-07-22T05:56:33.311Z,13.60
2018-07-22T05:59:02.396Z,13.68
2018-07-22T06:01:31.800Z,13.65
2018-07-22T06:04:00.928Z,13.90
2018-07-22T06:06:30.396Z,13.50
2018-07-22T06:08:59.484Z,14.43
2018-07-22T06:11:28.602Z,14.98
2018-07-22T06:13:57.759Z,14.38
2018-07-22T06:16:27.212Z,15.40
2018-07-22T06:18:56.651Z,15.18
2018-07-22T06:21:25.794Z,15.68
2018-07-22T06:23:54.972Z,16.27
2018-07-22T06:26:24.051Z,16.43
2018-07-22T06:28:54.488Z,17.07
2018-07-22T06:31:23.841Z,16.80
2018-07-22T06:33:52.947Z,17.30
2018-07-22T06:36:22.135Z,17.70
2018-07-22T06:38:51.560Z,17.83
2018-07-22T06:41:21.300Z,18.90
2018-07-22T06:43:50.414Z,19.40
2018-07-22T06:46:20.075Z,17.57
2018-07-22T06:48:49.987Z,18.10
2018-07-22T06:51:20.264Z,19.73
2018-07-22T06:53:50.166Z,18.07
2018-07-22T06:56:20.066Z,18.35
2018-07-22T06:58:50.060Z,17.87
2018-07-22T07:01:19.990Z,19.00
2018-07-22T07:03:50.385Z,17.50
2018-07-22T07:06:19.922Z,16.70
2018-07-22T07:08:49.977Z,17.27
2018-07-22T07:11:20.101Z,16.42
2018-07-22T07:13:50.037Z,16.17
2018-07-22T07:16:51.856Z,16.50
2018-07-22T07:19:20.923Z,17.17
2018-07-22T07:21:50.104Z,17.53
2018-07-22T07:24:20.377Z,17.23
2018-07-22T07:46:09.842Z,18.87
2018-07-22T07:48:38.996Z,18.40
2018-07-22T07:51:08.498Z,18.00
2018-07-22T07:53:37.922Z,17.27
2018-07-22T07:56:07.477Z,18.03
2018-07-22T07:58:36.566Z,18.77
2018-07-22T08:01:05.684Z,17.10
2018-07-22T08:03:34.789Z,19.48
2018-07-22T08:06:03.954Z,19.80
2018-07-22T08:08:33.055Z,20.52
2018-07-22T08:11:02.168Z,21.17
2018-07-22T08:13:31.298Z,19.95
2018-07-22T08:16:00.690Z,21.50
2018-07-22T08:18:30.106Z,20.80
2018-07-22T08:20:59.208Z,22.32
2018-07-22T08:23:28.342Z,21.77
2018-07-22T08:25:57.728Z,21.83
2018-07-22T08:28:37.926Z,23.50
2018-07-22T08:31:07.385Z,22.77
2018-07-22T08:33:36.476Z,26.33
2018-07-22T08:36:05.768Z,22.15
2018-07-22T08:38:35.264Z,22.58
2018-07-22T08:41:04.836Z,22.73
2018-07-22T08:43:33.862Z,22.62
2018-07-22T08:46:02.991Z,20.65
2018-07-22T08:48:32.463Z,21.57
2018-07-22T08:51:02.141Z,22.27
2018-07-22T08:53:31.921Z,21.70
2018-07-22T08:56:02.204Z,21.63
2018-07-22T08:58:31.337Z,19.90
2018-07-22T09:01:00.404Z,21.77
2018-07-22T09:03:29.468Z,22.10
2018-07-22T09:05:58.595Z,21.75
2018-07-22T09:08:27.711Z,21.05
2018-07-22T09:10:57.283Z,22.93
2018-07-22T09:13:26.711Z,22.40
2018-07-22T09:15:56.069Z,21.00
2018-07-22T09:18:25.399Z,21.77
2018-07-22T09:20:54.497Z,22.97
2018-07-22T09:23:24.016Z,22.27
2018-07-22T09:25:53.426Z,20.10
2018-07-22T09:28:22.562Z,20.50
2018-07-22T09:30:52.513Z,20.68
2018-07-22T09:33:22.732Z,21.07
2018-07-22T09:35:52.441Z,21.20
2018-07-22T09:38:22.473Z,20.72
2018-07-22T09:40:52.835Z,21.13
2018-07-22T09:43:22.923Z,21.33
2018-07-22T09:45:52.514Z,21.37
2018-07-22T09:48:22.543Z,23.13
2018-07-22T09:50:52.653Z,20.62
2018-07-22T09:53:22.921Z,20.00
2018-07-22T09:55:52.667Z,21.42
2018-07-22T09:58:22.796Z,19.17
2018-07-22T10:00:53.739Z,18.57
2018-07-22T10:03:24.869Z,19.33
2018-07-22T10:05:54.117Z,17.40
2018-07-22T10:08:23.231Z,19.57
2018-07-22T10:10:53.169Z,19.23
2018-07-22T10:13:23.144Z,18.85
2018-07-22T10:15:53.327Z,17.90
2018-07-22T10:18:23.350Z,17.53
2018-07-22T10:20:53.039Z,18.70
2018-07-22T10:23:23.124Z,17.10
2018-07-22T10:25:53.207Z,17.12
2018-07-22T10:28:23.308Z,17.10
2018-07-22T10:30:53.227Z,16.80
2018-07-22T10:33:23.678Z,17.43
2018-07-22T10:35:53.259Z,15.58
2018-07-22T10:38:23.957Z,15.27
2018-07-22T10:40:53.414Z,15.87
2018-07-22T10:43:23.304Z,15.87
2018-07-22T10:45:53.550Z,16.60
2018-07-22T10:48:23.273Z,17.43
2018-07-22T10:50:53.489Z,16.10
2018-07-22T10:53:23.798Z,17.60
2018-07-22T10:55:53.608Z,15.90
2018-07-22T10:58:24.182Z,17.10
2018-07-22T11:00:53.431Z,17.63
2018-07-22T11:03:23.522Z,17.12
2018-07-22T11:05:53.810Z,18.90
2018-07-22T11:08:23.689Z,17.57
2018-07-22T11:10:53.435Z,18.75
2018-07-22T11:13:23.568Z,19.95
2018-07-22T11:15:53.483Z,19.60
2018-07-22T11:18:23.774Z,19.50
2018-07-22T11:20:53.528Z,20.20
2018-07-22T11:23:23.925Z,21.52
2018-07-22T11:25:54.007Z,21.35
2018-07-22T11:28:23.487Z,21.93
2018-07-22T11:30:53.675Z,21.20
2018-07-22T11:33:24.321Z,19.98
2018-07-22T11:35:53.685Z,18.90
2018-07-22T11:38:23.877Z,19.52
2018-07-22T11:40:53.803Z,19.40
2018-07-22T11:43:24.087Z,20.10
2018-07-22T11:45:54.308Z,19.33
2018-07-22T11:48:24.389Z,20.67
2018-07-22T11:50:53.796Z,17.62
2018-07-22T11:53:23.905Z,18.45
2018-07-22T11:55:54.153Z,17.73
2018-07-22T11:58:24.085Z,16.70
2018-07-22T12:00:53.799Z,18.23
2018-07-22T12:03:24.211Z,19.40
2018-07-22T12:05:53.893Z,19.77
2018-07-22T12:08:24.146Z,19.67
2018-07-22T12:10:53.990Z,18.87
2018-07-22T12:13:24.396Z,19.15
2018-07-22T12:15:53.977Z,18.98
2018-07-22T12:18:24.212Z,20.50
2018-07-22T12:20:54.017Z,18.62
2018-07-22T12:23:24.025Z,20.00
2018-07-22T12:25:54.158Z,19.15
2018-07-22T12:28:24.138Z,21.00
2018-07-22T12:30:54.437Z,20.50
2018-07-22T12:33:24.128Z,21.97
2018-07-22T12:35:54.353Z,19.00
2018-07-22T12:38:24.108Z,18.00
2018-07-22T12:40:54.280Z,20.35
2018-07-22T12:43:24.281Z,20.13
2018-07-22T12:45:54.559Z,19.20
2018-07-22T12:48:24.096Z,20.03
2018-07-22T12:50:54.621Z,19.12
2018-07-22T12:53:24.337Z,18.97
2018-07-22T12:55:54.581Z,20.48
2018-07-22T12:58:24.232Z,20.30
2018-07-22T13:00:54.420Z,18.55
2018-07-22T13:03:24.435Z,19.80
2018-07-22T13:05:54.337Z,20.07
2018-07-22T13:08:24.620Z,19.32
2018-07-22T13:10:54.524Z,19.53
2018-07-22T13:13:24.646Z,18.60
2018-07-22T13:15:54.710Z,18.40
2018-07-22T13:18:24.529Z,18.20
2018-07-22T13:20:54.767Z,19.17
2018-07-22T13:23:24.705Z,19.23
2018-07-22T13:25:54.452Z,18.10
2018-07-22T13:28:24.486Z,19.30
2018-07-22T13:30:54.651Z,20.00
2018-07-22T13:33:24.584Z,18.90
2018-07-22T13:35:54.776Z,18.40
2018-07-22T13:38:25.242Z,20.90
2018-07-22T13:40:54.695Z,16.47
2018-07-22T13:43:24.891Z,13.40
2018-07-22T13:45:54.562Z,15.00
2018-07-22T13:48:24.881Z,11.90
2018-07-22T13:50:54.715Z,11.65
2018-07-22T13:53:25.057Z,13.45
2018-07-22T13:55:54.656Z,11.90
2018-07-22T13:58:24.856Z,13.28
2018-07-22T14:00:54.796Z,13.37
2018-07-22T14:03:24.814Z,13.13
2018-07-22T14:05:54.803Z,13.13
2018-07-22T14:08:24.796Z,14.10
2018-07-22T14:10:55.121Z,12.47
2018-07-22T14:13:25.144Z,12.93
2018-07-22T14:15:54.821Z,14.43
2018-07-22T14:18:24.756Z,14.10
2018-07-22T14:20:54.984Z,13.90
2018-07-22T14:23:25.210Z,14.23
2018-07-22T14:25:54.952Z,13.43
2018-07-22T14:28:24.881Z,13.73
2018-07-22T14:30:55.082Z,13.70
2018-07-22T14:33:25.378Z,13.23
2018-07-22T14:35:55.052Z,12.13
2018-07-22T14:38:25.197Z,12.10
2018-07-22T14:40:55.132Z,11.30
2018-07-22T14:43:25.502Z,12.55
2018-07-22T14:45:55.463Z,14.13
2018-07-22T14:48:25.348Z,13.93
2018-07-22T14:50:55.110Z,16.40
2018-07-22T14:53:25.616Z,15.05
2018-07-22T14:55:55.134Z,14.00
2018-07-22T14:58:25.322Z,14.25
2018-07-22T15:00:55.398Z,14.58
2018-07-22T15:03:25.586Z,13.87
2018-07-22T15:05:55.560Z,13.13
2018-07-22T15:08:25.339Z,13.87
2018-07-22T15:10:55.499Z,13.90
2018-07-22T15:13:25.576Z,13.80
2018-07-22T15:15:55.518Z,13.58
2018-07-22T15:18:25.358Z,13.73
2018-07-22T15:20:55.539Z,13.98
2018-07-22T15:23:25.604Z,13.27
2018-07-22T15:25:55.716Z,13.20
2018-07-22T15:28:25.589Z,13.50
2018-07-22T15:30:55.975Z,13.85
2018-07-22T15:33:25.750Z,12.90
2018-07-22T15:35:55.664Z,11.85
2018-07-22T15:38:25.536Z,11.10
2018-07-22T15:40:55.620Z,9.93
2018-07-22T15:43:25.943Z,9.13
2018-07-22T15:45:55.693Z,8.75
2018-07-22T15:48:25.854Z,9.03
2018-07-22T15:50:55.978Z,8.77
2018-07-22T15:53:25.999Z,8.03
2018-07-22T15:55:55.862Z,9.20
2018-07-22T15:58:25.962Z,8.25
2018-07-22T16:00:55.800Z,7.10
2018-07-22T16:03:25.698Z,7.97
2018-07-22T16:05:55.873Z,7.15
2018-07-22T16:08:25.963Z,7.33
2018-07-22T16:10:55.891Z,6.55
2018-07-22T16:13:25.993Z,6.50
2018-07-22T16:15:56.033Z,6.23
2018-07-22T16:18:26.436Z,6.30
2018-07-22T16:20:55.994Z,7.20
2018-07-22T16:23:26.128Z,6.37
2018-07-22T16:25:55.959Z,5.93
2018-07-22T16:28:26.139Z,6.25
2018-07-22T16:30:56.059Z,6.80
2018-07-22T16:33:26.114Z,6.45
2018-07-22T16:35:56.108Z,6.90
2018-07-22T16:38:26.192Z,7.22
2018-07-22T16:40:56.431Z,7.33
2018-07-22T16:43:26.393Z,7.43
2018-07-22T16:45:56.293Z,6.95
2018-07-22T16:48:26.596Z,7.62
2018-07-22T16:50:56.140Z,6.83
2018-07-22T16:53:26.448Z,7.70
2018-07-22T16:55:56.574Z,6.87
2018-07-22T16:58:26.385Z,7.87
2018-07-22T17:00:56.512Z,7.57
2018-07-22T17:03:26.738Z,6.28
2018-07-22T17:05:56.477Z,7.33
2018-07-22T17:08:26.546Z,8.05
2018-07-22T17:10:56.398Z,7.83
2018-07-22T17:13:26.616Z,7.20
2018-07-22T17:15:56.347Z,7.30
2018-07-22T17:18:26.886Z,8.28
2018-07-22T17:20:56.763Z,7.30
2018-07-22T17:23:27.072Z,6.95
2018-07-22T17:25:56.664Z,6.60
2018-07-22T17:28:26.893Z,7.40
2018-07-22T17:30:56.883Z,7.35
2018-07-22T17:33:26.578Z,6.83
2018-07-22T17:35:57.125Z,7.58
2018-07-22T17:38:26.828Z,6.87
2018-07-22T17:40:56.926Z,7.40
2018-07-22T17:43:26.678Z,7.25
2018-07-22T17:45:56.873Z,9.10
2018-07-22T17:48:26.857Z,7.57
2018-07-22T17:50:56.732Z,7.50
2018-07-22T17:53:27.554Z,7.53
2018-07-22T17:55:57.278Z,8.07
2018-07-22T17:58:26.798Z,8.60
2018-07-22T18:00:57.200Z,7.95
2018-07-22T18:03:29.298Z,8.97
2018-07-22T18:05:58.538Z,7.47
2018-07-22T18:08:27.983Z,7.80
2018-07-22T18:10:57.466Z,8.20
2018-07-22T18:13:27.443Z,12.82
2018-07-22T18:15:57.113Z,8.90
2018-07-22T18:18:27.233Z,7.70
2018-07-22T18:20:57.221Z,8.23
2018-07-22T18:23:27.570Z,8.13
2018-07-22T18:25:57.279Z,8.03
2018-07-22T18:28:27.198Z,7.83
2018-07-22T18:30:57.318Z,8.70
2018-07-22T18:33:27.408Z,7.85
2018-07-22T18:35:57.323Z,7.83
2018-07-22T18:38:28.143Z,8.15
2018-07-22T18:40:57.742Z,9.70
2018-07-22T18:43:29.652Z,8.90
2018-07-22T18:45:59.340Z,7.50
2018-07-22T18:48:29.271Z,11.20
2018-07-22T18:50:59.092Z,8.93
2018-07-22T18:53:28.690Z,8.60
2018-07-22T18:56:00.108Z,8.50
2018-07-22T18:58:31.880Z,9.23
2018-07-22T19:01:02.137Z,8.37
2018-07-22T19:03:31.589Z,8.30
2018-07-22T19:06:01.698Z,9.00
2018-07-22T19:08:32.408Z,9.03
2018-07-22T19:11:02.953Z,9.00
2018-07-22T19:13:33.028Z,8.78
2018-07-22T19:16:03.597Z,9.30
2018-07-22T19:18:34.163Z,9.18
2018-07-22T19:21:03.906Z,10.58
2018-07-22T19:23:34.831Z,10.30
2018-07-22T19:26:04.617Z,9.50
2018-07-22T19:28:35.445Z,9.33
2018-07-22T19:31:05.555Z,10.32
2018-07-22T19:33:35.623Z,10.10
2018-07-22T19:36:05.853Z,9.13
2018-07-22T19:38:36.143Z,9.90
2018-07-22T19:41:06.463Z,9.30
2018-07-22T19:43:36.676Z,8.47
2018-07-22T19:46:07.004Z,9.75
2018-07-22T19:48:37.513Z,10.67
2018-07-22T19:51:07.645Z,8.90
2018-07-22T19:53:37.872Z,11.40
2018-07-22T19:56:07.649Z,9.70
2018-07-22T19:58:38.508Z,12.80
2018-07-22T20:01:08.812Z,11.30
2018-07-22T20:03:39.685Z,11.12
2018-07-22T20:06:09.734Z,12.33
2018-07-22T20:08:39.878Z,12.90
2018-07-22T20:11:10.025Z,10.15
2018-07-22T20:13:39.881Z,12.90
2018-07-22T20:16:09.628Z,9.13
2018-07-22T20:18:38.989Z,10.23
2018-07-22T20:21:08.857Z,8.97
2018-07-22T20:23:38.324Z,10.00
2018-07-22T20:26:07.622Z,11.40
2018-07-22T20:28:37.005Z,10.53
2018-07-22T20:31:06.741Z,12.20
2018-07-22T20:33:35.835Z,10.17
2018-07-22T20:36:05.032Z,9.50
2018-07-22T20:38:34.196Z,13.32
2018-07-22T20:41:03.778Z,10.60
2018-07-22T20:43:32.916Z,11.93
2018-07-22T20:46:02.204Z,12.63
2018-07-22T20:48:31.355Z,11.13
2018-07-22T20:51:01.052Z,11.67
2018-07-22T20:53:30.543Z,10.77
2018-07-22T20:56:00.075Z,12.17
2018-07-22T20:58:30.322Z,11.70
2018-07-22T21:00:59.863Z,13.77
2018-07-22T21:03:29.347Z,10.87
2018-07-22T21:05:58.912Z,14.47
2018-07-22T21:08:28.964Z,12.60
2018-07-22T21:10:58.987Z,13.70
2018-07-22T21:13:29.202Z,13.60
2018-07-22T21:15:59.040Z,12.35
2018-07-22T21:18:29.341Z,11.17
2018-07-22T21:20:59.394Z,12.03
2018-07-22T21:23:29.665Z,13.03
2018-07-22T21:25:59.636Z,15.13
2018-07-22T21:28:29.462Z,16.13
2018-07-22T21:30:59.445Z,12.97
2018-07-22T21:33:29.734Z,14.38
2018-07-22T21:35:59.286Z,13.07
2018-07-22T21:38:29.527Z,14.60
2018-07-22T21:40:59.405Z,16.23
2018-07-22T21:43:29.823Z,14.43
2018-07-22T21:45:59.719Z,13.17
2018-07-22T21:48:29.521Z,13.22
2018-07-22T21:50:59.445Z,12.50
2018-07-22T21:53:29.891Z,14.70
2018-07-22T21:55:59.715Z,14.85
2018-07-22T21:58:29.563Z,16.90
2018-07-22T22:00:59.958Z,18.50
2018-07-22T22:03:29.618Z,22.03
2018-07-22T22:05:59.757Z,16.77
2018-07-22T22:08:29.608Z,15.13
2018-07-22T22:11:00.138Z,17.12
2018-07-22T22:13:29.694Z,15.27
2018-07-22T22:15:59.751Z,14.80
2018-07-22T22:18:29.909Z,15.10
2018-07-22T22:20:59.794Z,15.47
2018-07-22T22:23:30.117Z,14.47
2018-07-22T22:26:00.012Z,19.50
2018-07-22T22:28:30.026Z,15.30
2018-07-22T22:30:59.923Z,18.17
2018-07-22T22:33:30.185Z,17.10
2018-07-22T22:36:00.000Z,15.28
2018-07-22T22:38:30.329Z,16.50
2018-07-22T22:41:00.373Z,17.20
2018-07-22T22:43:30.261Z,20.83
2018-07-22T22:46:00.184Z,16.23
2018-07-22T22:48:30.423Z,16.33
2018-07-22T22:51:00.528Z,22.50
2018-07-22T22:53:30.341Z,17.87
2018-07-22T22:56:00.893Z,17.15
2018-07-22T22:58:41.214Z,19.47
2018-07-22T23:01:10.320Z,17.00
2018-07-22T23:03:39.790Z,16.55
2018-07-22T23:06:08.886Z,18.50
2018-07-22T23:08:38.014Z,16.40
2018-07-22T23:11:07.510Z,16.25
2018-07-22T23:13:36.575Z,17.63
2018-07-22T23:16:06.129Z,18.63
2018-07-22T23:18:35.216Z,20.92
2018-07-22T23:21:05.148Z,16.27
2018-07-22T23:23:34.643Z,20.03
2018-07-22T23:26:03.719Z,16.73
2018-07-22T23:28:32.785Z,20.37
2018-07-22T23:31:02.295Z,17.03
2018-07-22T23:33:31.748Z,25.80
2018-07-22T23:36:01.042Z,18.13
2018-07-22T23:38:30.881Z,19.60
2018-07-22T23:41:00.729Z,21.90
2018-07-22T23:43:30.741Z,23.57
2018-07-22T23:46:00.954Z,21.23
2018-07-22T23:48:30.939Z,26.68
2018-07-22T23:51:01.225Z,25.02
2018-07-22T23:53:31.166Z,23.60
2018-07-22T23:56:01.138Z,22.70
2018-07-22T23:58:31.404Z,26.33
